createdAt,value
2022-10-07T00:02:09.164Z,12.06
2022-10-07T00:04:46.432Z,12.02
2022-10-07T00:07:18.869Z,11.94
2022-10-07T00:09:50.834Z,11.96
2022-10-07T00:12:23.184Z,11.99
2022-10-07T00:14:55.329Z,11.97
2022-10-07T00:17:28.845Z,11.93
2022-10-07T00:20:01.689Z,11.85
2022-10-07T00:22:33.755Z,11.95
2022-10-07T00:25:06.059Z,11.95
2022-10-07T00:27:38.030Z,11.92
2022-10-07T00:30:11.856Z,11.81
2022-10-07T00:32:43.918Z,11.84
2022-10-07T00:35:16.624Z,11.82
2022-10-07T00:37:49.128Z,11.82
2022-10-07T00:40:22.820Z,11.81
2022-10-07T00:42:54.751Z,11.78
2022-10-07T00:45:26.933Z,11.76
2022-10-07T00:47:59.621Z,11.75
2022-10-07T00:50:32.146Z,11.75
2022-10-07T00:53:05.802Z,11.73
2022-10-07T00:55:38.046Z,11.70
2022-10-07T00:58:11.838Z,11.73
2022-10-07T01:00:53.115Z,11.75
2022-10-07T01:03:25.326Z,11.74
2022-10-07T01:05:57.315Z,11.74
2022-10-07T01:08:30.638Z,11.73
2022-10-07T01:11:14.980Z,11.74
2022-10-07T01:14:01.189Z,11.75
2022-10-07T01:16:40.981Z,11.73
2022-10-07T01:19:36.327Z,11.70
2022-10-07T01:22:17.590Z,11.70
2022-10-07T01:24:56.808Z,11.64
2022-10-07T01:27:30.780Z,11.65
2022-10-07T01:30:05.719Z,11.66
2022-10-07T01:32:44.505Z,11.67
2022-10-07T01:35:20.897Z,11.64
2022-10-07T01:37:57.518Z,11.62
2022-10-07T01:40:35.126Z,11.62
2022-10-07T01:43:08.460Z,11.59
2022-10-07T01:45:42.832Z,11.53
2022-10-07T01:48:14.973Z,11.49
2022-10-07T01:50:48.287Z,11.51
2022-10-07T01:53:35.141Z,11.51
2022-10-07T02:04:55.264Z,11.53
2022-10-07T02:12:23.114Z,11.46
2022-10-07T02:34:17.505Z,11.31
2022-10-07T02:41:46.168Z,11.30
2022-10-07T03:27:29.058Z,11.09
2022-10-07T03:30:01.788Z,11.05
2022-10-07T03:32:34.220Z,11.03
2022-10-07T03:35:07.242Z,11.04
2022-10-07T03:37:39.424Z,11.05
2022-10-07T03:40:13.196Z,11.02
2022-10-07T03:42:45.182Z,11.02
2022-10-07T03:45:17.376Z,11.00
2022-10-07T03:47:49.714Z,11.00
2022-10-07T03:50:22.051Z,10.89
2022-10-07T03:52:55.818Z,10.97
2022-10-07T03:55:27.757Z,10.98
2022-10-07T03:58:00.044Z,10.99
2022-10-07T04:00:33.722Z,10.99
2022-10-07T04:03:07.803Z,11.01
2022-10-07T04:05:40.190Z,11.01
2022-10-07T04:08:17.570Z,10.98
2022-10-07T04:10:50.171Z,10.97
2022-10-07T04:13:22.260Z,10.84
2022-10-07T04:15:54.986Z,10.92
2022-10-07T04:18:27.661Z,10.90
2022-10-07T04:21:03.483Z,10.89
2022-10-07T04:23:37.095Z,10.86
2022-10-07T04:26:12.294Z,10.82
2022-10-07T04:28:49.330Z,10.81
2022-10-07T04:31:26.760Z,10.80
2022-10-07T04:34:03.221Z,10.75
2022-10-07T04:36:40.742Z,10.69
2022-10-07T04:39:15.415Z,10.65
2022-10-07T04:41:54.782Z,10.65
2022-10-07T04:44:29.915Z,10.61
2022-10-07T04:47:09.668Z,10.56
2022-10-07T04:49:42.997Z,10.53
2022-10-07T04:52:15.224Z,10.40
2022-10-07T04:54:48.384Z,10.49
2022-10-07T04:57:20.721Z,10.46
2022-10-07T04:59:53.963Z,10.44
2022-10-07T05:02:26.867Z,10.41
2022-10-07T05:05:00.034Z,10.38
2022-10-07T05:07:33.464Z,10.39
2022-10-07T05:10:06.600Z,10.38
2022-10-07T05:12:41.276Z,10.37
2022-10-07T05:15:14.002Z,10.37
2022-10-07T05:17:46.519Z,10.37
2022-10-07T05:20:19.114Z,10.30
2022-10-07T05:22:52.381Z,10.41
2022-10-07T05:25:24.816Z,10.41
2022-10-07T05:27:56.953Z,10.36
2022-10-07T05:30:29.144Z,10.46
2022-10-07T05:33:01.595Z,10.48
2022-10-07T05:35:35.208Z,10.51
2022-10-07T05:38:08.634Z,10.50
2022-10-07T05:40:40.683Z,10.51
2022-10-07T05:43:14.037Z,10.51
2022-10-07T05:45:47.810Z,10.53
2022-10-07T05:48:19.744Z,10.52
2022-10-07T05:50:51.692Z,10.51
2022-10-07T05:53:23.969Z,10.50
2022-10-07T05:55:57.043Z,10.48
2022-10-07T05:58:29.974Z,10.47
2022-10-07T06:01:08.725Z,10.47
2022-10-07T06:03:44.771Z,10.45
2022-10-07T06:06:17.560Z,10.46
2022-10-07T06:08:50.283Z,10.38
2022-10-07T06:11:40.654Z,10.37
2022-10-07T06:14:12.982Z,10.47
2022-10-07T06:16:45.213Z,10.48
2022-10-07T06:19:22.945Z,10.51
2022-10-07T06:21:56.413Z,10.52
2022-10-07T06:24:29.253Z,10.56
2022-10-07T06:27:01.392Z,10.59
2022-10-07T06:29:33.502Z,10.63
2022-10-07T06:32:06.055Z,10.67
2022-10-07T06:34:38.918Z,10.70
2022-10-07T06:37:11.395Z,10.73
2022-10-07T06:39:44.669Z,10.78
2022-10-07T06:42:17.607Z,10.82
2022-10-07T06:45:12.370Z,10.86
2022-10-07T06:47:44.988Z,10.93
2022-10-07T06:50:17.587Z,10.96
2022-10-07T06:52:50.546Z,11.07
2022-10-07T06:55:22.793Z,11.14
2022-10-07T06:57:55.461Z,11.23
2022-10-07T07:00:27.485Z,11.31
2022-10-07T07:03:01.691Z,11.27
2022-10-07T07:05:41.429Z,11.45
2022-10-07T07:08:18.342Z,11.50
2022-10-07T07:10:50.761Z,11.64
2022-10-07T07:13:24.814Z,11.69
2022-10-07T07:16:00.648Z,11.74
2022-10-07T07:18:35.567Z,11.81
2022-10-07T07:33:19.324Z,12.38
2022-10-07T07:35:51.979Z,12.54
2022-10-07T07:38:25.550Z,12.66
2022-10-07T07:40:58.445Z,12.72
2022-10-07T07:43:30.598Z,12.80
2022-10-07T07:46:03.284Z,12.90
2022-10-07T07:48:36.240Z,12.92
2022-10-07T07:51:53.593Z,13.03
2022-10-07T07:54:31.320Z,13.18
2022-10-07T07:57:47.697Z,13.30
2022-10-07T08:00:29.773Z,13.42
2022-10-07T08:03:05.440Z,13.42
2022-10-07T08:05:39.410Z,13.60
2022-10-07T08:08:14.672Z,13.69
2022-10-07T08:10:51.118Z,13.79
2022-10-07T08:13:24.971Z,13.85
2022-10-07T08:16:04.147Z,13.91
2022-10-07T08:18:36.164Z,13.98
2022-10-07T08:21:09.241Z,14.09
2022-10-07T08:23:42.944Z,14.22
2022-10-07T08:26:15.759Z,14.28
2022-10-07T08:28:49.137Z,14.40
2022-10-07T08:31:22.941Z,14.45
2022-10-07T08:33:55.953Z,14.52
2022-10-07T08:36:32.725Z,14.55
2022-10-07T08:39:06.616Z,14.62
2022-10-07T08:41:47.056Z,14.80
2022-10-07T08:44:24.719Z,14.85
2022-10-07T08:47:03.129Z,14.89
2022-10-07T08:49:43.859Z,15.01
2022-10-07T08:52:32.753Z,14.94
2022-10-07T08:55:10.846Z,15.16
2022-10-07T08:57:52.888Z,15.23
2022-10-07T09:00:25.829Z,15.33
2022-10-07T09:03:11.444Z,15.32
2022-10-07T09:05:46.558Z,15.38
2022-10-07T09:08:28.620Z,15.50
2022-10-07T09:11:15.950Z,15.62
2022-10-07T09:14:59.382Z,15.76
2022-10-07T09:18:00.679Z,15.91
2022-10-07T09:20:38.982Z,15.99
2022-10-07T09:23:16.493Z,16.13
2022-10-07T09:25:48.573Z,16.24
2022-10-07T09:28:25.349Z,16.27
2022-10-07T09:30:57.884Z,16.37
2022-10-07T09:33:30.838Z,16.40
2022-10-07T09:36:10.558Z,16.59
2022-10-07T09:38:44.411Z,16.64
2022-10-07T09:41:21.468Z,16.63
2022-10-07T09:44:03.859Z,16.85
2022-10-07T09:46:43.449Z,16.98
2022-10-07T09:49:36.202Z,17.06
2022-10-07T09:52:18.405Z,17.20
2022-10-07T09:54:52.637Z,17.28
2022-10-07T09:57:31.754Z,17.40
2022-10-07T10:00:23.528Z,17.51
2022-10-07T10:03:05.286Z,17.59
2022-10-07T10:05:40.315Z,17.63
2022-10-07T10:08:29.519Z,17.78
2022-10-07T10:11:03.739Z,17.85
2022-10-07T10:13:38.402Z,17.90
2022-10-07T10:16:36.085Z,17.90
2022-10-07T10:19:22.350Z,17.90
2022-10-07T10:21:56.347Z,18.01
2022-10-07T10:24:50.055Z,17.91
2022-10-07T10:27:27.566Z,17.91
2022-10-07T10:30:05.691Z,17.99
2022-10-07T10:33:01.263Z,18.08
2022-10-07T10:35:40.284Z,18.07
2022-10-07T10:38:37.465Z,18.16
2022-10-07T10:41:20.598Z,18.21
2022-10-07T10:44:13.600Z,18.43
2022-10-07T10:46:54.879Z,18.44
2022-10-07T10:49:36.175Z,18.40
2022-10-07T10:52:25.943Z,18.53
2022-10-07T10:55:12.549Z,18.70
2022-10-07T10:58:00.052Z,18.74
2022-10-07T11:00:46.090Z,18.84
2022-10-07T11:03:25.679Z,18.86
2022-10-07T11:05:59.151Z,19.01
2022-10-07T11:08:38.402Z,19.11
2022-10-07T11:11:13.668Z,19.07
2022-10-07T11:13:48.082Z,19.20
2022-10-07T11:16:26.055Z,19.18
2022-10-07T11:19:00.921Z,19.24
2022-10-07T11:21:38.493Z,19.16
2022-10-07T11:24:15.436Z,19.13
2022-10-07T11:26:53.939Z,19.21
2022-10-07T11:29:33.759Z,19.28
2022-10-07T11:32:13.585Z,19.35
2022-10-07T11:34:54.562Z,19.41
2022-10-07T11:37:34.912Z,19.53
2022-10-07T11:40:09.476Z,19.63
2022-10-07T11:42:46.618Z,19.76
2022-10-07T11:45:25.228Z,19.85
2022-10-07T11:48:00.767Z,19.74
2022-10-07T11:50:37.960Z,19.62
2022-10-07T11:53:15.839Z,19.72
2022-10-07T11:55:55.240Z,19.78
2022-10-07T11:58:32.804Z,19.90
2022-10-07T12:01:42.051Z,19.83
2022-10-07T12:04:42.177Z,20.03
2022-10-07T12:07:38.954Z,19.98
2022-10-07T12:10:37.122Z,20.04
2022-10-07T12:13:39.956Z,20.08
2022-10-07T12:16:55.186Z,20.03
2022-10-07T12:19:27.723Z,19.98
2022-10-07T12:22:21.604Z,20.07
2022-10-07T12:25:24.517Z,20.12
2022-10-07T12:27:57.799Z,19.94
2022-10-07T12:30:50.114Z,20.03
2022-10-07T12:33:35.099Z,19.95
2022-10-07T12:36:29.430Z,20.04
2022-10-07T12:39:35.469Z,20.03
2022-10-07T12:42:14.523Z,20.13
2022-10-07T12:44:51.395Z,20.10
2022-10-07T12:47:28.232Z,20.13
2022-10-07T12:50:04.857Z,20.16
2022-10-07T12:52:44.928Z,20.05
2022-10-07T12:55:21.138Z,20.03
2022-10-07T12:58:15.919Z,20.12
2022-10-07T13:01:00.003Z,20.10
2022-10-07T13:03:56.776Z,20.10
2022-10-07T13:06:57.755Z,20.14
2022-10-07T13:09:58.879Z,20.15
2022-10-07T13:12:41.142Z,20.15
2022-10-07T13:15:27.667Z,20.17
2022-10-07T13:18:10.930Z,20.15
2022-10-07T13:21:12.525Z,20.19
2022-10-07T13:23:53.296Z,20.24
2022-10-07T13:26:27.044Z,20.23
2022-10-07T13:29:01.338Z,20.33
2022-10-07T13:31:34.765Z,20.32
2022-10-07T13:34:19.068Z,20.21
2022-10-07T13:36:51.334Z,20.09
2022-10-07T13:39:24.386Z,20.21
2022-10-07T13:41:58.604Z,20.38
2022-10-07T13:44:33.449Z,20.34
2022-10-07T13:47:11.961Z,20.35
2022-10-07T13:49:47.246Z,20.39
2022-10-07T13:52:29.499Z,20.64
2022-10-07T13:55:01.363Z,20.67
2022-10-07T13:57:36.040Z,20.55
2022-10-07T14:00:12.717Z,20.53
2022-10-07T14:02:46.112Z,20.80
2022-10-07T14:05:23.872Z,20.82
2022-10-07T14:07:58.188Z,20.77
2022-10-07T14:10:32.688Z,21.09
2022-10-07T14:13:07.338Z,21.38
2022-10-07T14:15:47.930Z,21.41
2022-10-07T14:18:20.079Z,21.40
2022-10-07T14:20:55.324Z,21.22
2022-10-07T14:23:32.943Z,21.15
2022-10-07T14:26:06.260Z,20.88
2022-10-07T14:28:39.880Z,20.55
2022-10-07T14:31:40.145Z,20.37
2022-10-07T14:34:36.425Z,20.14
2022-10-07T14:37:10.037Z,20.04
2022-10-07T14:39:44.249Z,19.87
2022-10-07T14:42:18.850Z,19.79
2022-10-07T14:44:55.001Z,19.65
2022-10-07T14:47:28.575Z,19.51
2022-10-07T14:50:01.466Z,19.41
2022-10-07T14:52:43.487Z,19.38
2022-10-07T14:55:23.338Z,19.28
2022-10-07T14:57:55.728Z,19.22
2022-10-07T15:00:32.927Z,19.11
2022-10-07T15:03:08.231Z,19.02
2022-10-07T15:05:40.535Z,18.97
2022-10-07T15:08:13.356Z,18.89
2022-10-07T15:10:46.257Z,18.86
2022-10-07T15:13:18.760Z,18.88
2022-10-07T15:15:51.509Z,18.84
2022-10-07T15:18:23.676Z,18.63
2022-10-07T15:20:59.531Z,18.74
2022-10-07T15:23:31.732Z,18.68
2022-10-07T15:26:04.006Z,18.64
2022-10-07T15:28:36.585Z,18.53
2022-10-07T15:31:10.797Z,18.52
2022-10-07T15:33:42.836Z,18.50
2022-10-07T15:36:15.331Z,18.45
2022-10-07T15:38:47.173Z,18.42
2022-10-07T15:41:34.004Z,18.40
2022-10-07T15:44:08.870Z,18.32
2022-10-07T15:46:40.952Z,18.26
2022-10-07T15:49:13.518Z,18.23
2022-10-07T15:51:46.796Z,18.15
2022-10-07T15:54:20.904Z,18.05
2022-10-07T15:56:53.215Z,18.05
2022-10-07T15:59:25.191Z,17.97
2022-10-07T16:01:57.453Z,17.83
2022-10-07T16:04:30.185Z,17.80
2022-10-07T16:07:05.445Z,17.84
2022-10-07T16:09:37.447Z,17.68
2022-10-07T16:12:09.851Z,17.71
2022-10-07T16:15:20.022Z,17.65
2022-10-07T16:17:53.330Z,17.58
2022-10-07T16:20:25.369Z,17.51
2022-10-07T16:22:57.376Z,17.44
2022-10-07T16:25:29.462Z,17.37
2022-10-07T16:28:20.287Z,17.22
2022-10-07T16:30:52.356Z,17.15
2022-10-07T16:33:25.118Z,17.12
2022-10-07T16:35:58.390Z,17.06
2022-10-07T16:38:30.285Z,17.00
2022-10-07T16:41:02.379Z,16.96
2022-10-07T16:43:35.943Z,16.91
2022-10-07T16:46:16.760Z,16.85
2022-10-07T16:59:19.712Z,16.58
2022-10-07T17:01:56.530Z,16.47
2022-10-07T17:04:27.583Z,16.41
2022-10-07T17:06:59.832Z,16.35
2022-10-07T17:09:33.403Z,16.30
2022-10-07T17:12:07.037Z,16.24
2022-10-07T17:14:39.066Z,16.17
2022-10-07T17:17:11.628Z,16.13
2022-10-07T17:19:44.688Z,15.98
2022-10-07T17:22:16.726Z,16.02
2022-10-07T17:24:50.686Z,15.98
2022-10-07T17:27:22.652Z,15.92
2022-10-07T17:29:55.766Z,15.83
2022-10-07T17:32:28.319Z,15.79
2022-10-07T17:35:00.476Z,15.74
2022-10-07T17:37:34.350Z,15.70
2022-10-07T17:40:07.888Z,15.68
2022-10-07T17:42:39.991Z,15.64
2022-10-07T17:45:13.431Z,15.58
2022-10-07T17:47:46.071Z,15.54
2022-10-07T17:50:18.401Z,15.49
2022-10-07T17:52:51.505Z,15.45
2022-10-07T17:55:24.030Z,15.41
2022-10-07T17:57:56.207Z,15.38
2022-10-07T18:00:28.423Z,15.33
2022-10-07T18:03:01.305Z,15.31
2022-10-07T18:10:17.694Z,15.26
2022-10-07T18:13:07.956Z,15.22
2022-10-07T18:15:39.783Z,15.18
2022-10-07T18:18:11.847Z,15.21
2022-10-07T18:20:44.018Z,15.20
2022-10-07T18:23:17.351Z,15.17
2022-10-07T18:25:49.855Z,15.19
2022-10-07T18:28:22.139Z,15.20
2022-10-07T18:30:55.081Z,15.19
2022-10-07T18:33:27.642Z,15.20
2022-10-07T18:47:23.731Z,15.25
2022-10-07T18:49:57.281Z,15.21
2022-10-07T18:52:29.604Z,15.22
2022-10-07T18:55:01.725Z,15.22
2022-10-07T18:57:33.795Z,15.21
2022-10-07T19:00:08.390Z,15.20
2022-10-07T19:02:40.450Z,15.21
2022-10-07T19:05:12.716Z,15.20
2022-10-07T19:07:44.883Z,15.19
2022-10-07T19:10:17.064Z,15.18
2022-10-07T19:13:06.532Z,15.16
2022-10-07T19:15:40.060Z,15.16
2022-10-07T19:18:13.319Z,15.15
2022-10-07T19:20:54.857Z,15.15
2022-10-07T19:23:27.272Z,15.15
2022-10-07T19:26:01.869Z,15.15
2022-10-07T19:28:35.315Z,15.15
2022-10-07T19:31:16.836Z,15.15
2022-10-07T19:33:50.665Z,15.15
2022-10-07T19:36:25.611Z,15.15
2022-10-07T19:38:58.510Z,15.12
2022-10-07T19:41:33.316Z,15.12
2022-10-07T19:44:06.531Z,15.10
2022-10-07T19:46:39.429Z,15.10
2022-10-07T19:49:12.048Z,15.09
2022-10-07T19:51:45.009Z,15.05
2022-10-07T19:54:17.257Z,15.03
2022-10-07T19:56:49.632Z,15.00
2022-10-07T19:59:22.209Z,14.99
2022-10-07T20:01:58.801Z,14.97
2022-10-07T20:04:33.521Z,14.96
2022-10-07T20:07:05.676Z,14.93
2022-10-07T20:09:37.814Z,14.92
2022-10-07T20:12:10.098Z,14.89
2022-10-07T20:14:41.983Z,14.87
2022-10-07T20:17:14.148Z,14.84
2022-10-07T20:19:46.248Z,14.72
2022-10-07T20:22:18.658Z,14.79
2022-10-07T20:24:50.551Z,14.75
2022-10-07T20:27:22.565Z,14.72
2022-10-07T20:30:02.471Z,14.69
2022-10-07T20:32:35.615Z,14.67
2022-10-07T20:35:10.790Z,14.68
2022-10-07T20:37:45.905Z,14.65
2022-10-07T20:40:36.808Z,14.62
2022-10-07T20:43:08.784Z,14.61
2022-10-07T20:45:54.847Z,14.64
2022-10-07T20:48:29.169Z,14.53
2022-10-07T20:51:08.362Z,14.61
2022-10-07T20:53:40.352Z,14.60
2022-10-07T20:56:13.506Z,14.62
2022-10-07T20:58:46.074Z,14.53
2022-10-07T21:01:18.025Z,14.62
2022-10-07T21:03:49.975Z,14.62
2022-10-07T21:06:22.130Z,14.61
2022-10-07T21:08:57.903Z,14.60
2022-10-07T21:11:30.853Z,14.60
2022-10-07T21:14:03.006Z,14.59
2022-10-07T21:16:36.480Z,14.57
2022-10-07T21:19:08.565Z,14.56
2022-10-07T21:21:40.944Z,14.54
2022-10-07T21:24:13.494Z,14.51
2022-10-07T21:26:46.052Z,14.47
2022-10-07T21:29:19.015Z,14.42
2022-10-07T21:31:53.187Z,14.40
2022-10-07T21:34:26.206Z,14.37
2022-10-07T21:36:59.194Z,14.30
2022-10-07T21:39:31.838Z,14.25
2022-10-07T21:42:04.217Z,14.25
2022-10-07T21:44:36.506Z,14.22
2022-10-07T21:47:08.438Z,14.18
2022-10-07T21:49:41.235Z,14.15
2022-10-07T21:52:13.255Z,14.12
2022-10-07T21:54:45.369Z,14.07
2022-10-07T21:57:17.342Z,14.06
2022-10-07T21:59:49.421Z,14.00
2022-10-07T22:02:21.519Z,13.98
2022-10-07T22:04:53.704Z,13.95
2022-10-07T22:07:43.181Z,13.93
2022-10-07T22:10:15.384Z,13.81
2022-10-07T22:12:47.591Z,13.87
2022-10-07T22:15:21.020Z,13.86
2022-10-07T22:17:53.062Z,13.88
2022-10-07T22:20:25.198Z,13.79
2022-10-07T22:22:59.981Z,13.74
2022-10-07T22:25:32.420Z,13.73
2022-10-07T22:28:04.436Z,13.66
2022-10-07T22:30:39.422Z,13.74
2022-10-07T22:33:15.223Z,13.63
2022-10-07T22:35:47.661Z,13.75
2022-10-07T22:38:20.410Z,13.74
2022-10-07T22:40:52.677Z,13.73
2022-10-07T22:44:00.083Z,13.70
2022-10-07T22:46:40.297Z,13.68
2022-10-07T22:49:29.567Z,13.65
2022-10-07T22:52:03.370Z,13.64
2022-10-07T22:54:35.305Z,13.61
2022-10-07T22:57:07.893Z,13.61
2022-10-07T23:00:26.654Z,13.61
2022-10-07T23:03:03.453Z,13.58
2022-10-07T23:06:06.034Z,13.50
2022-10-07T23:08:59.094Z,13.52
2022-10-07T23:11:32.359Z,13.50
2022-10-07T23:14:20.613Z,13.50
2022-10-07T23:16:52.613Z,13.50
2022-10-07T23:20:45.754Z,13.48
2022-10-07T23:23:35.695Z,13.47
2022-10-07T23:26:11.436Z,13.48
2022-10-07T23:28:43.763Z,13.47
2022-10-07T23:32:24.369Z,13.47
2022-10-07T23:34:51.941Z,13.46
2022-10-07T23:37:26.775Z,13.48
2022-10-07T23:40:16.954Z,13.47
2022-10-07T23:42:49.601Z,13.45
2022-10-07T23:45:22.069Z,13.46
2022-10-07T23:47:54.316Z,13.44
2022-10-07T23:50:27.851Z,13.42
2022-10-07T23:53:00.182Z,13.40
2022-10-07T23:56:18.727Z,13.38
2022-10-07T23:59:54.283Z,13.35
